Rochelle, Illinois
Current Conditions -  °F | °C
As of 10:15 AM on Monday 24 Nov 2014 (Local Time) from KRPJ Reporting Station
Moderate Snow Moderate Snow  
Wind Chill: -9°   Ceiling: 700
Heat Index: -1°   Visibility: 0.5mi
Dew Point: -2°   Wind: 29mph
Humidity: 96%   Direction: 260°W
Pressure: 29.3"   Gusts: 36mph
Location:  41.93°N, 89.07°W
Report Text: KRPJ 241615Z AUTO 26025G31KT 1/2SM SN OVC007 M01/M01 A2930 RMK AO2 T10101015
Loading
Personal Weather Stations






























Interactive Weather Map New forecast layout! Learn more

10-Day Weather Forecast

Advertisements
Track Severe Weather on mobile